Time;durP1;ratioP1;P1;durP2;ratioP2;P2;SDS_P1;SDS_P2;PMS_P1;PMS_P2;Temp;Humidity;BMP_temperature;BMP_pressure;BME280_temperature;BME280_humidity;BME280_pressure;Samples;Min_cycle;Max_cycle;Signal;HPM_P1;HPM_P2
2021/12/31 00:02:18;;;;;;;511.85;272.48;;;5.60;99.90;;;;;;4970955;28;20076;-71
2021/12/31 00:04:44;;;;;;;388.70;200.50;;;5.70;99.90;;;;;;4971204;28;20023;-72
2021/12/31 00:07:10;;;;;;;397.95;206.13;;;5.70;99.90;;;;;;4970730;28;20081;-71
2021/12/31 00:09:36;;;;;;;363.10;177.80;;;5.60;99.90;;;;;;4971214;28;20027;-72
2021/12/31 00:12:04;;;;;;;378.10;193.13;;;5.60;99.90;;;;;;4970933;28;20109;-72
2021/12/31 00:14:30;;;;;;;410.95;199.93;;;5.60;99.90;;;;;;4968465;28;20077;-72
2021/12/31 00:16:56;;;;;;;399.88;193.43;;;5.60;99.90;;;;;;4970880;28;20500;-72
2021/12/31 00:19:22;;;;;;;399.40;195.82;;;5.60;99.90;;;;;;4971312;28;20019;-72
2021/12/31 00:21:50;;;;;;;392.00;199.35;;;5.60;99.90;;;;;;4968123;28;20482;-72
2021/12/31 00:24:16;;;;;;;394.65;186.45;;;5.60;99.90;;;;;;4970559;28;20037;-72
2021/12/31 00:26:42;;;;;;;364.25;175.43;;;5.60;99.90;;;;;;4970821;28;20027;-71
2021/12/31 00:29:08;;;;;;;382.45;180.77;;;5.70;99.90;;;;;;4970736;28;20026;-71
2021/12/31 00:31:33;;;;;;;378.45;178.60;;;5.70;99.90;;;;;;4970648;28;20027;-71
2021/12/31 00:33:59;;;;;;;387.58;179.68;;;5.70;99.90;;;;;;4970890;28;20019;-71
2021/12/31 00:36:45;;;;;;;348.33;160.43;;;5.60;99.90;;;;;;4970631;28;20026;-71
2021/12/31 00:39:11;;;;;;;319.67;151.60;;;5.70;99.90;;;;;;4968862;28;20031;-71
2021/12/31 00:41:37;;;;;;;316.17;147.25;;;5.70;99.90;;;;;;4970121;28;20389;-71
2021/12/31 00:44:04;;;;;;;328.05;148.90;;;5.70;99.90;;;;;;4970804;28;20042;-71
2021/12/31 00:46:31;;;;;;;303.55;137.75;;;5.80;99.90;;;;;;4970657;28;20022;-71
2021/12/31 00:48:58;;;;;;;287.65;132.07;;;5.80;99.90;;;;;;4970508;28;20458;-71
2021/12/31 00:51:25;;;;;;;290.60;129.30;;;5.80;99.90;;;;;;4970360;28;20039;-72
2021/12/31 00:53:51;;;;;;;294.60;135.85;;;5.80;99.90;;;;;;4970570;28;20026;-71
2021/12/31 00:56:17;;;;;;;286.30;132.23;;;5.80;99.90;;;;;;4970388;28;20023;-72
2021/12/31 00:58:43;;;;;;;282.13;134.95;;;5.80;99.90;;;;;;4970396;28;21277;-71
2021/12/31 01:01:16;;;;;;;280.77;133.35;;;5.80;99.90;;;;;;4967548;28;20030;-72
2021/12/31 01:03:41;;;;;;;288.38;135.23;;;5.90;99.90;;;;;;4970373;28;20046;-72
2021/12/31 01:06:07;;;;;;;299.42;141.35;;;5.90;99.90;;;;;;4970311;28;20030;-72
2021/12/31 01:08:33;;;;;;;310.55;137.05;;;5.80;99.90;;;;;;4970252;28;20027;-72
2021/12/31 01:10:59;;;;;;;311.50;140.35;;;5.90;99.90;;;;;;4970202;28;20038;-72
2021/12/31 01:13:34;;;;;;;342.67;159.00;;;5.80;99.90;;;;;;4970238;28;20393;-72
2021/12/31 01:16:01;;;;;;;339.15;159.50;;;5.80;99.90;;;;;;4970412;28;20026;-72
2021/12/31 01:19:45;;;;;;;283.10;138.90;;;5.80;99.90;;;;;;4970174;28;20038;-72
2021/12/31 01:21:14;;;;;;;249.05;106.97;;;5.90;99.90;;;;;;4967945;28;20423;-72
2021/12/31 01:23:40;;;;;;;228.63;104.03;;;5.80;99.90;;;;;;4970537;28;20477;-72
2021/12/31 01:26:06;;;;;;;205.55;95.47;;;5.90;99.90;;;;;;4973634;28;20057;-72
2021/12/31 01:28:31;;;;;;;183.35;83.35;;;5.90;99.90;;;;;;4973600;28;20031;-72
2021/12/31 01:30:57;;;;;;;163.45;78.05;;;5.90;99.90;;;;;;4973392;28;20084;-72
2021/12/31 01:33:23;;;;;;;167.15;77.57;;;5.90;99.90;;;;;;4973282;28;20034;-72
2021/12/31 01:35:49;;;;;;;175.30;82.18;;;6.00;99.90;;;;;;4973747;28;20033;-72
2021/12/31 01:38:17;;;;;;;174.38;77.93;;;6.00;99.90;;;;;;4973077;28;20439;-72
2021/12/31 01:40:44;;;;;;;185.50;86.15;;;6.00;99.90;;;;;;4973060;28;20084;-72
2021/12/31 01:43:12;;;;;;;187.18;89.63;;;6.00;99.90;;;;;;4973370;28;20038;-72
2021/12/31 01:45:53;;;;;;;181.52;88.28;;;6.00;99.90;;;;;;4972807;28;20088;-72
2021/12/31 01:48:24;;;;;;;168.05;82.10;;;6.00;99.90;;;;;;4971751;28;20027;-72
2021/12/31 01:50:51;;;;;;;171.37;83.03;;;6.00;99.90;;;;;;4970894;28;20504;-72
2021/12/31 01:53:18;;;;;;;192.40;89.10;;;6.10;99.90;;;;;;4972737;28;20026;-72
2021/12/31 01:55:44;;;;;;;185.35;87.57;;;6.00;99.90;;;;;;4972866;28;20050;-72
2021/12/31 01:58:11;;;;;;;217.82;100.32;;;6.00;99.90;;;;;;4974194;28;20437;-72
2021/12/31 02:00:38;;;;;;;217.48;98.22;;;6.10;99.90;;;;;;4974295;28;20436;-72
2021/12/31 02:03:07;;;;;;;310.92;132.20;;;6.10;99.90;;;;;;4973563;28;20023;-72
2021/12/31 02:05:33;;;;;;;168.10;81.50;;;6.10;99.90;;;;;;4973335;28;20031;-72
2021/12/31 02:07:59;;;;;;;175.88;82.63;;;6.20;99.90;;;;;;4973477;28;20034;-72
2021/12/31 02:10:25;;;;;;;173.75;83.50;;;6.20;99.90;;;;;;4973608;28;20035;-72
2021/12/31 02:12:53;;;;;;;180.07;85.47;;;6.20;99.90;;;;;;4972959;28;20114;-72
2021/12/31 02:15:20;;;;;;;185.63;85.95;;;6.20;99.90;;;;;;4973324;28;20027;-72
2021/12/31 02:17:48;;;;;;;164.15;77.63;;;6.20;99.90;;;;;;4973072;28;20031;-72
2021/12/31 02:20:15;;;;;;;173.52;79.20;;;6.20;99.90;;;;;;4973198;28;20484;-72
2021/12/31 02:22:52;;;;;;;169.98;80.43;;;6.20;99.90;;;;;;4971949;28;20380;-72
2021/12/31 02:25:20;;;;;;;178.35;80.53;;;6.10;99.90;;;;;;4973484;28;20073;-72
2021/12/31 02:27:46;;;;;;;167.20;79.60;;;6.10;99.90;;;;;;4972795;28;20031;-72
2021/12/31 02:30:12;;;;;;;193.10;91.00;;;6.10;99.90;;;;;;4972997;28;20084;-72
2021/12/31 02:32:38;;;;;;;217.68;95.97;;;6.00;99.90;;;;;;4973477;28;20030;-72
2021/12/31 02:35:08;;;;;;;207.75;95.20;;;6.00;99.90;;;;;;4972653;28;20035;-72
2021/12/31 02:37:34;;;;;;;197.13;93.93;;;6.00;99.90;;;;;;4972908;28;20027;-72
2021/12/31 02:40:03;;;;;;;188.93;88.32;;;6.00;99.90;;;;;;4973047;28;20050;-72
2021/12/31 02:42:29;;;;;;;178.27;81.60;;;6.00;99.90;;;;;;4972804;28;20054;-72
2021/12/31 02:44:56;;;;;;;179.15;80.43;;;5.90;99.90;;;;;;4972628;28;20504;-72
2021/12/31 02:47:22;;;;;;;181.85;82.95;;;5.90;99.90;;;;;;4973747;28;20109;-71
2021/12/31 02:49:49;;;;;;;171.70;78.15;;;5.90;99.90;;;;;;4973410;28;20030;-72
2021/12/31 02:52:16;;;;;;;169.05;76.40;;;5.90;99.90;;;;;;4972837;28;20050;-72
2021/12/31 02:54:45;;;;;;;170.45;80.28;;;5.80;99.90;;;;;;4973033;28;20030;-72
2021/12/31 02:57:12;;;;;;;169.73;79.75;;;5.80;99.90;;;;;;4973265;28;20031;-72
2021/12/31 02:59:39;;;;;;;189.82;85.15;;;5.80;99.90;;;;;;4973155;28;20098;-72
2021/12/31 03:02:06;;;;;;;197.18;88.72;;;5.70;99.90;;;;;;4973155;28;20465;-72
2021/12/31 03:04:36;;;;;;;188.20;85.63;;;5.80;99.90;;;;;;4973119;28;20038;-72
2021/12/31 03:07:05;;;;;;;163.98;73.82;;;5.70;99.90;;;;;;4972804;28;20110;-72
2021/12/31 03:09:32;;;;;;;214.30;101.57;;;5.70;99.90;;;;;;4972868;28;20035;-72
2021/12/31 03:12:01;;;;;;;246.85;113.07;;;5.70;99.90;;;;;;4972739;28;20485;-72
2021/12/31 03:14:29;;;;;;;192.15;89.50;;;5.70;99.90;;;;;;4972447;28;20058;-72
2021/12/31 03:16:54;;;;;;;198.13;88.53;;;5.70;99.90;;;;;;4972452;28;20034;-72
2021/12/31 03:19:21;;;;;;;184.63;85.78;;;5.70;99.90;;;;;;4972821;28;20033;-72
2021/12/31 03:21:47;;;;;;;236.23;110.15;;;5.70;99.90;;;;;;4973263;28;20023;-72
2021/12/31 03:24:13;;;;;;;305.50;143.10;;;5.70;99.90;;;;;;4973014;28;20076;-71
2021/12/31 03:26:39;;;;;;;263.35;121.28;;;5.70;99.90;;;;;;4972690;28;20401;-72
2021/12/31 03:29:05;;;;;;;209.15;98.35;;;5.70;99.90;;;;;;4972921;28;20027;-72
2021/12/31 03:31:31;;;;;;;205.32;97.40;;;5.60;99.90;;;;;;4972202;28;20531;-72
2021/12/31 03:33:57;;;;;;;226.38;104.00;;;5.60;99.90;;;;;;4972632;28;20022;-72
2021/12/31 03:36:23;;;;;;;221.73;106.72;;;5.60;99.90;;;;;;4972964;28;20023;-72
2021/12/31 03:38:49;;;;;;;223.57;105.00;;;5.60;99.90;;;;;;4972650;28;20054;-72
2021/12/31 03:41:14;;;;;;;218.75;105.95;;;5.60;99.90;;;;;;4972499;28;20074;-72
2021/12/31 03:43:40;;;;;;;231.27;109.38;;;5.60;99.90;;;;;;4972522;28;20112;-72
2021/12/31 03:46:07;;;;;;;260.33;115.85;;;5.60;99.90;;;;;;4972523;28;20066;-72
2021/12/31 03:48:33;;;;;;;252.93;111.80;;;5.70;99.90;;;;;;4971830;28;20069;-72
2021/12/31 03:50:59;;;;;;;255.73;118.55;;;5.70;99.90;;;;;;4972466;28;20035;-72
2021/12/31 03:53:25;;;;;;;256.95;122.53;;;5.60;99.90;;;;;;4972510;28;20167;-72
2021/12/31 03:55:50;;;;;;;255.45;117.25;;;5.70;99.90;;;;;;4972330;28;20105;-72
2021/12/31 03:58:16;;;;;;;263.60;116.47;;;5.80;99.90;;;;;;4972444;28;20026;-72
2021/12/31 04:00:44;;;;;;;250.40;114.38;;;5.80;99.90;;;;;;4972200;28;20038;-72
2021/12/31 04:03:11;;;;;;;251.23;118.88;;;5.70;99.90;;;;;;4972544;28;20084;-72
2021/12/31 04:05:40;;;;;;;235.30;109.85;;;5.70;99.90;;;;;;4972188;28;20113;-71
2021/12/31 04:08:06;;;;;;;243.20;115.72;;;5.70;99.90;;;;;;4972117;28;20474;-72
2021/12/31 04:10:32;;;;;;;266.52;139.18;;;5.70;99.90;;;;;;4972668;28;20027;-72
2021/12/31 04:12:58;;;;;;;237.95;116.40;;;5.70;99.90;;;;;;4971984;28;20027;-71
2021/12/31 04:15:24;;;;;;;243.80;115.20;;;5.70;99.90;;;;;;4972152;28;20069;-72
2021/12/31 04:17:50;;;;;;;299.40;152.13;;;5.70;99.90;;;;;;4972154;28;20031;-72
2021/12/31 04:20:22;;;;;;;260.00;128.90;;;5.60;99.90;;;;;;4971674;28;20033;-72
2021/12/31 04:22:54;;;;;;;268.17;124.57;;;5.60;99.90;;;;;;4971724;28;20038;-72
2021/12/31 04:25:21;;;;;;;238.30;108.55;;;5.60;99.90;;;;;;4971768;28;20474;-71
2021/12/31 04:27:47;;;;;;;247.48;114.15;;;5.50;99.90;;;;;;4972073;28;20519;-71
2021/12/31 04:30:13;;;;;;;242.38;113.32;;;5.60;99.90;;;;;;4971885;28;20030;-71
2021/12/31 04:32:40;;;;;;;244.82;117.68;;;5.50;99.90;;;;;;4971692;28;20039;-71
2021/12/31 04:35:07;;;;;;;249.27;118.45;;;5.50;99.90;;;;;;4972145;28;20548;-71
2021/12/31 04:37:33;;;;;;;252.20;117.63;;;5.40;99.90;;;;;;4972220;28;20023;-71
2021/12/31 04:39:59;;;;;;;268.75;126.88;;;5.40;99.90;;;;;;4971895;28;20735;-72
2021/12/31 04:42:25;;;;;;;286.73;139.13;;;5.40;99.90;;;;;;4971237;28;20141;-71
2021/12/31 04:44:51;;;;;;;297.70;135.80;;;5.40;99.90;;;;;;4971620;28;20096;-71
2021/12/31 04:47:16;;;;;;;276.48;132.50;;;5.40;99.90;;;;;;4971675;28;20066;-72
2021/12/31 04:49:42;;;;;;;295.67;135.30;;;5.40;99.90;;;;;;4971897;28;20034;-71
2021/12/31 04:52:08;;;;;;;335.48;157.70;;;5.30;99.90;;;;;;4971854;28;20030;-71
2021/12/31 04:54:34;;;;;;;353.20;167.27;;;5.40;99.90;;;;;;4971423;28;20052;-71
2021/12/31 04:57:00;;;;;;;298.58;133.52;;;5.40;99.90;;;;;;4971833;28;20027;-71
2021/12/31 04:59:26;;;;;;;289.77;131.35;;;5.40;99.90;;;;;;4973161;28;20087;-71
2021/12/31 05:01:52;;;;;;;294.40;129.18;;;5.40;99.90;;;;;;4974251;28;20042;-71
2021/12/31 05:04:18;;;;;;;280.88;129.02;;;5.50;99.90;;;;;;4975543;28;20035;-71
2021/12/31 05:06:44;;;;;;;302.08;138.93;;;5.50;99.90;;;;;;4974959;28;20038;-71
2021/12/31 05:09:12;;;;;;;357.98;191.98;;;5.50;99.90;;;;;;4974705;28;20102;-71
2021/12/31 05:11:38;;;;;;;282.05;134.35;;;5.50;99.90;;;;;;4974728;28;20559;-72
2021/12/31 05:14:04;;;;;;;292.50;141.10;;;5.50;99.90;;;;;;4975107;28;20055;-72
2021/12/31 05:16:30;;;;;;;344.83;160.48;;;5.40;99.90;;;;;;4974469;28;20031;-72
2021/12/31 05:18:56;;;;;;;285.65;142.52;;;5.40;99.90;;;;;;4974599;28;20034;-71
2021/12/31 05:21:22;;;;;;;308.40;162.70;;;5.40;99.90;;;;;;4974903;28;20035;-72
2021/12/31 05:23:48;;;;;;;275.52;143.25;;;5.40;99.90;;;;;;4974791;28;20115;-71
2021/12/31 05:26:14;;;;;;;266.35;131.15;;;5.40;99.90;;;;;;4975000;28;20378;-72
2021/12/31 05:28:39;;;;;;;274.73;137.77;;;5.40;99.90;;;;;;4974404;28;20420;-71
2021/12/31 05:31:06;;;;;;;312.58;150.20;;;5.50;99.90;;;;;;4974790;28;20038;-71
2021/12/31 05:33:33;;;;;;;347.60;158.32;;;5.40;99.90;;;;;;4974650;28;20038;-72
2021/12/31 05:36:00;;;;;;;264.92;127.88;;;5.50;99.90;;;;;;4974024;28;20035;-72
2021/12/31 05:38:26;;;;;;;292.08;134.75;;;5.50;99.90;;;;;;4974640;28;20035;-72
2021/12/31 05:40:52;;;;;;;284.88;133.15;;;5.40;99.90;;;;;;4974561;28;20374;-71
2021/12/31 05:43:18;;;;;;;267.52;118.63;;;5.40;99.90;;;;;;4974590;28;20043;-71
2021/12/31 05:45:44;;;;;;;264.58;123.38;;;5.40;99.90;;;;;;4974298;28;20053;-72
2021/12/31 05:48:10;;;;;;;354.70;161.52;;;5.40;99.90;;;;;;4974802;28;20462;-71
2021/12/31 05:50:36;;;;;;;282.88;136.02;;;5.40;99.90;;;;;;4973991;28;20474;-72
2021/12/31 05:53:02;;;;;;;285.42;139.15;;;5.40;99.90;;;;;;4973934;28;20055;-72
2021/12/31 05:55:29;;;;;;;279.08;137.43;;;5.30;99.90;;;;;;4974642;28;20118;-72
2021/12/31 05:57:56;;;;;;;295.60;145.00;;;5.40;99.90;;;;;;4974039;28;20027;-72
2021/12/31 06:00:23;;;;;;;387.88;195.30;;;5.40;99.90;;;;;;4974268;28;20034;-72
2021/12/31 06:02:49;;;;;;;408.88;219.50;;;5.30;99.90;;;;;;4974046;28;20035;-72
2021/12/31 06:05:15;;;;;;;394.98;212.93;;;5.30;99.90;;;;;;4974221;28;20084;-72
2021/12/31 06:07:41;;;;;;;381.13;195.60;;;5.40;99.90;;;;;;4974212;28;20034;-73
2021/12/31 06:10:07;;;;;;;363.90;195.82;;;5.40;99.90;;;;;;4973463;28;20031;-72
2021/12/31 06:12:37;;;;;;;348.42;179.88;;;5.40;99.90;;;;;;4973576;28;20092;-72
2021/12/31 06:15:07;;;;;;;369.33;187.98;;;5.40;99.90;;;;;;4974116;28;20035;-72
2021/12/31 06:17:33;;;;;;;383.27;207.88;;;5.50;99.90;;;;;;4973666;28;20027;-72
2021/12/31 06:19:59;;;;;;;392.20;218.77;;;5.50;99.90;;;;;;4974200;28;20034;-72
2021/12/31 06:22:25;;;;;;;398.25;213.68;;;5.50;99.90;;;;;;4973960;28;20357;-72
2021/12/31 06:24:51;;;;;;;381.27;202.00;;;5.50;99.90;;;;;;4973549;28;20110;-72
2021/12/31 06:27:18;;;;;;;432.05;226.63;;;5.50;99.90;;;;;;4973624;28;20512;-72
2021/12/31 06:29:44;;;;;;;472.10;251.52;;;5.50;99.90;;;;;;4973274;28;20035;-72
2021/12/31 06:32:10;;;;;;;512.70;270.65;;;5.60;99.90;;;;;;4973375;28;20039;-72
2021/12/31 06:34:36;;;;;;;494.45;259.35;;;5.60;99.90;;;;;;4973545;28;20488;-72
2021/12/31 06:37:02;;;;;;;464.83;246.30;;;5.60;99.90;;;;;;4973780;28;20027;-72
2021/12/31 06:39:28;;;;;;;419.67;226.40;;;5.70;99.90;;;;;;4973661;28;20030;-72
2021/12/31 06:41:54;;;;;;;425.02;237.77;;;5.60;99.90;;;;;;4973610;28;20063;-72
2021/12/31 06:44:20;;;;;;;423.60;228.95;;;5.70;99.90;;;;;;4973674;28;20026;-72
2021/12/31 06:46:46;;;;;;;362.38;192.65;;;5.70;99.90;;;;;;4972726;28;20073;-72
2021/12/31 06:49:12;;;;;;;353.55;181.20;;;5.70;99.90;;;;;;4973289;28;20031;-72
2021/12/31 06:51:38;;;;;;;374.55;188.07;;;5.80;99.90;;;;;;4973320;28;20100;-72
2021/12/31 06:54:04;;;;;;;325.92;159.10;;;5.80;99.90;;;;;;4973431;28;20027;-72
2021/12/31 06:56:30;;;;;;;304.77;154.43;;;5.80;99.90;;;;;;4973469;28;20084;-72
2021/12/31 06:58:55;;;;;;;321.80;156.77;;;5.80;99.90;;;;;;4973586;28;20091;-72
2021/12/31 07:01:21;;;;;;;390.60;190.10;;;5.90;99.90;;;;;;4973014;28;20470;-72
2021/12/31 07:03:48;;;;;;;440.25;215.40;;;5.90;99.90;;;;;;4972859;28;20118;-72
2021/12/31 07:06:14;;;;;;;389.92;195.43;;;5.90;99.90;;;;;;4973121;28;20385;-72
2021/12/31 07:08:40;;;;;;;347.95;174.55;;;5.90;99.90;;;;;;4972922;28;20035;-72
2021/12/31 07:11:06;;;;;;;347.42;183.15;;;6.00;99.90;;;;;;4972926;28;20534;-72
2021/12/31 07:13:32;;;;;;;368.05;194.32;;;6.00;99.90;;;;;;4973248;28;20109;-72
2021/12/31 07:15:58;;;;;;;379.23;195.27;;;6.00;99.90;;;;;;4973220;28;20023;-72
2021/12/31 07:18:24;;;;;;;379.38;195.85;;;6.10;99.90;;;;;;4973239;28;20029;-72
2021/12/31 07:20:50;;;;;;;357.67;181.50;;;6.10;99.90;;;;;;4972023;28;20031;-72
2021/12/31 07:23:19;;;;;;;350.75;176.43;;;6.10;99.90;;;;;;4972290;28;20406;-72
2021/12/31 07:25:45;;;;;;;348.50;190.55;;;6.10;99.90;;;;;;4973058;28;20027;-72
2021/12/31 07:28:13;;;;;;;339.40;175.18;;;6.20;99.90;;;;;;4972798;28;20051;-72
2021/12/31 07:30:40;;;;;;;359.13;201.68;;;6.20;99.90;;;;;;4973014;28;20027;-72
2021/12/31 07:33:13;;;;;;;580.17;288.02;;;6.20;99.90;;;;;;4972581;28;20031;-73
2021/12/31 07:35:38;;;;;;;413.65;215.70;;;6.30;99.90;;;;;;4972796;28;20035;-72
2021/12/31 07:38:04;;;;;;;481.35;250.00;;;6.20;99.90;;;;;;4972602;28;20080;-72
2021/12/31 07:40:41;;;;;;;695.70;305.15;;;6.20;99.90;;;;;;4972404;28;20104;-73
2021/12/31 07:43:09;;;;;;;491.33;222.07;;;6.20;99.90;;;;;;4972744;28;20078;-72
2021/12/31 07:45:35;;;;;;;535.30;246.13;;;6.20;99.90;;;;;;4972700;28;20031;-72
2021/12/31 07:48:02;;;;;;;450.08;224.25;;;6.30;99.90;;;;;;4972760;28;20023;-73
2021/12/31 07:50:29;;;;;;;414.38;209.88;;;6.30;99.90;;;;;;4971863;28;20026;-72
2021/12/31 07:52:54;;;;;;;364.10;188.77;;;6.40;99.90;;;;;;4972433;28;20049;-72
2021/12/31 07:55:20;;;;;;;387.67;205.73;;;6.50;99.90;;;;;;4971704;28;20772;-72
2021/12/31 07:57:46;;;;;;;381.65;201.85;;;6.50;99.90;;;;;;4972233;28;20022;-73
2021/12/31 08:00:12;;;;;;;374.13;203.63;;;6.60;99.90;;;;;;4972568;28;20019;-72
2021/12/31 08:02:38;;;;;;;366.55;192.77;;;6.60;99.90;;;;;;4969003;28;20169;-73
2021/12/31 08:05:04;;;;;;;373.50;196.93;;;6.70;99.90;;;;;;4971936;28;20030;-72
2021/12/31 08:07:30;;;;;;;342.13;191.63;;;6.70;99.90;;;;;;4971895;28;20038;-72
2021/12/31 08:09:56;;;;;;;298.40;164.40;;;6.80;99.90;;;;;;4971890;28;20023;-72
2021/12/31 08:12:22;;;;;;;309.33;167.32;;;6.90;99.90;;;;;;4971773;28;20035;-72
2021/12/31 08:14:48;;;;;;;338.92;178.38;;;7.00;99.90;;;;;;4971881;28;20022;-72
2021/12/31 08:17:14;;;;;;;347.55;194.20;;;7.10;99.90;;;;;;4969118;28;20018;-72
2021/12/31 08:19:41;;;;;;;371.55;210.35;;;7.20;99.90;;;;;;4971951;28;20030;-72
2021/12/31 08:22:07;;;;;;;362.83;203.77;;;7.20;99.90;;;;;;4971366;28;20089;-72
2021/12/31 08:24:33;;;;;;;393.35;229.10;;;7.30;99.90;;;;;;4971360;28;20023;-72
2021/12/31 08:26:59;;;;;;;395.45;220.05;;;7.60;99.90;;;;;;4971782;28;20029;-72
2021/12/31 08:29:25;;;;;;;376.63;216.15;;;7.70;99.90;;;;;;4972162;28;20029;-72
2021/12/31 08:31:51;;;;;;;382.98;220.10;;;7.80;99.90;;;;;;4971518;28;20062;-72
2021/12/31 08:34:16;;;;;;;338.40;187.77;;;8.10;99.90;;;;;;4971291;28;20058;-73
2021/12/31 08:36:42;;;;;;;322.95;184.27;;;8.40;99.90;;;;;;4971673;28;20030;-72
2021/12/31 08:39:09;;;;;;;296.83;166.20;;;8.40;99.90;;;;;;4971032;28;20023;-72
2021/12/31 08:41:37;;;;;;;303.88;172.65;;;8.50;99.90;;;;;;4968653;28;20418;-72
2021/12/31 08:44:04;;;;;;;263.15;146.88;;;8.50;99.90;;;;;;4971750;28;20026;-73
2021/12/31 08:46:31;;;;;;;270.48;148.95;;;8.40;99.90;;;;;;4971284;28;20054;-72
2021/12/31 08:48:57;;;;;;;255.68;138.15;;;8.50;99.90;;;;;;4971943;28;20530;-72
2021/12/31 08:51:23;;;;;;;219.82;120.53;;;8.50;99.90;;;;;;4971606;28;20068;-73
2021/12/31 08:53:49;;;;;;;214.15;114.55;;;8.50;99.90;;;;;;4971191;28;20038;-72
2021/12/31 08:56:15;;;;;;;192.50;103.72;;;8.50;99.90;;;;;;4971540;28;20458;-72
2021/12/31 08:58:40;;;;;;;196.73;107.93;;;8.50;99.90;;;;;;4971436;28;20046;-72
2021/12/31 09:01:07;;;;;;;226.52;129.20;;;8.60;99.90;;;;;;4967805;28;20530;-72
2021/12/31 09:03:32;;;;;;;235.57;129.88;;;8.70;99.90;;;;;;4970767;28;20488;-72
2021/12/31 09:05:58;;;;;;;253.80;143.05;;;8.80;99.90;;;;;;4971568;28;20066;-72
2021/12/31 09:08:24;;;;;;;249.55;134.13;;;8.80;99.90;;;;;;4971908;28;20382;-72
2021/12/31 09:10:50;;;;;;;225.85;123.07;;;8.80;99.90;;;;;;4971643;28;20057;-72
2021/12/31 09:13:16;;;;;;;281.35;153.07;;;8.70;99.90;;;;;;4971502;28;20496;-72
2021/12/31 09:15:41;;;;;;;246.20;135.13;;;8.70;99.90;;;;;;4971777;28;20027;-72
2021/12/31 09:18:07;;;;;;;201.48;116.22;;;8.80;99.90;;;;;;4971690;28;20027;-72
2021/12/31 09:20:33;;;;;;;216.13;118.95;;;9.10;99.90;;;;;;4971313;28;20026;-72
2021/12/31 09:22:59;;;;;;;157.50;88.82;;;9.00;99.90;;;;;;4971544;28;20039;-73
2021/12/31 09:25:25;;;;;;;150.52;84.85;;;9.10;99.90;;;;;;4971644;28;20031;-74
2021/12/31 09:27:51;;;;;;;128.52;72.55;;;9.20;99.90;;;;;;4971503;28;20088;-74
2021/12/31 09:30:17;;;;;;;145.60;80.57;;;9.30;99.90;;;;;;4971913;28;20381;-74
2021/12/31 09:32:42;;;;;;;158.00;86.55;;;9.40;99.90;;;;;;4971617;28;20062;-74
2021/12/31 09:35:09;;;;;;;135.77;77.65;;;9.50;99.90;;;;;;4970963;28;20104;-74
2021/12/31 09:37:34;;;;;;;155.88;82.68;;;9.30;99.90;;;;;;4971462;28;20033;-72
2021/12/31 09:40:01;;;;;;;126.50;69.07;;;9.30;99.90;;;;;;4971522;28;20023;-73
2021/12/31 09:42:27;;;;;;;131.43;74.57;;;9.20;99.90;;;;;;4971141;28;20055;-72
2021/12/31 09:44:53;;;;;;;159.57;89.82;;;9.20;99.90;;;;;;4971653;28;20486;-73
2021/12/31 09:47:19;;;;;;;167.13;88.47;;;9.20;99.90;;;;;;4974720;28;20030;-73
2021/12/31 09:49:47;;;;;;;172.98;89.85;;;9.20;99.90;;;;;;4974056;28;20427;-72
2021/12/31 09:52:14;;;;;;;197.80;106.45;;;9.20;99.90;;;;;;4974467;28;20114;-72
2021/12/31 09:54:45;;;;;;;162.23;82.30;;;9.20;99.90;;;;;;4974512;28;20033;-73
2021/12/31 09:57:20;;;;;;;204.30;104.80;;;9.30;99.90;;;;;;4974587;28;20034;-73
2021/12/31 09:59:47;;;;;;;166.82;90.65;;;9.20;99.90;;;;;;4974365;28;20058;-72
2021/12/31 10:02:15;;;;;;;127.15;68.35;;;9.20;99.90;;;;;;4974192;28;20027;-72
2021/12/31 10:04:54;;;;;;;145.65;76.75;;;9.30;99.90;;;;;;4974379;28;20417;-72
2021/12/31 10:07:23;;;;;;;157.43;84.35;;;9.30;99.90;;;;;;4974354;28;20031;-71
2021/12/31 10:10:11;;;;;;;149.43;78.07;;;9.30;99.90;;;;;;4974178;28;20034;-71
2021/12/31 10:12:50;;;;;;;146.40;76.40;;;9.40;99.90;;;;;;4973964;28;20422;-71
2021/12/31 10:15:17;;;;;;;112.03;61.78;;;9.50;99.90;;;;;;4971223;28;20038;-71
2021/12/31 10:17:44;;;;;;;114.40;61.63;;;9.50;99.90;;;;;;4972392;28;20041;-71
2021/12/31 10:20:10;;;;;;;122.20;67.95;;;9.50;99.90;;;;;;4970803;28;20457;-71
2021/12/31 10:22:36;;;;;;;102.50;57.40;;;9.60;99.90;;;;;;4973016;28;20045;-71
2021/12/31 10:25:14;;;;;;;108.90;59.72;;;9.60;99.90;;;;;;4974323;28;20035;-71
2021/12/31 10:27:40;;;;;;;123.63;67.40;;;9.70;99.90;;;;;;4974101;28;20023;-72
2021/12/31 10:30:07;;;;;;;142.70;74.93;;;9.70;99.90;;;;;;4973339;28;20449;-72
2021/12/31 10:32:40;;;;;;;160.32;87.80;;;9.80;99.90;;;;;;4973728;28;20529;-72
2021/12/31 10:35:19;;;;;;;166.45;91.38;;;9.80;99.90;;;;;;4973845;28;20429;-72
2021/12/31 10:37:50;;;;;;;169.55;92.75;;;9.80;99.90;;;;;;4973147;28;20037;-72
2021/12/31 10:40:46;;;;;;;155.55;88.22;;;9.90;99.90;;;;;;4974022;28;20046;-71
2021/12/31 10:43:16;;;;;;;130.15;73.03;;;9.90;99.90;;;;;;5012206;28;20046;-72
2021/12/31 10:46:00;;;;;;;102.70;57.78;;;9.90;99.90;;;;;;5012386;28;20026;-72
2021/12/31 10:48:38;;;;;;;131.18;75.22;;;9.90;99.90;;;;;;5012416;28;20041;-71
2021/12/31 10:51:03;;;;;;;173.65;92.70;;;10.00;99.90;;;;;;5011650;28;20037;-71
2021/12/31 10:53:33;;;;;;;179.10;97.55;;;10.00;99.90;;;;;;5011156;28;20045;-72
2021/12/31 10:56:13;;;;;;;190.18;104.30;;;10.00;99.90;;;;;;5010823;28;20077;-71
2021/12/31 10:58:42;;;;;;;164.60;86.63;;;10.10;99.90;;;;;;5012075;28;20030;-72
2021/12/31 11:01:14;;;;;;;308.40;161.82;;;10.10;99.90;;;;;;5012034;28;20042;-72
2021/12/31 11:03:41;;;;;;;175.45;98.53;;;10.20;99.90;;;;;;5012426;28;20076;-71
2021/12/31 11:06:10;;;;;;;341.60;189.75;;;10.30;99.90;;;;;;5012245;28;20485;-72
2021/12/31 11:08:36;;;;;;;478.38;262.27;;;10.30;99.90;;;;;;5010449;28;20065;-71
2021/12/31 11:11:04;;;;;;;325.98;169.65;;;10.40;99.90;;;;;;5011609;28;20044;-72
2021/12/31 11:13:30;;;;;;;255.18;137.57;;;10.50;99.90;;;;;;5011766;28;20125;-72
2021/12/31 11:15:58;;;;;;;167.15;93.70;;;10.50;99.90;;;;;;5012053;28;20116;-71
2021/12/31 11:18:25;;;;;;;119.85;70.28;;;10.60;99.90;;;;;;5011259;28;20421;-71
2021/12/31 11:21:03;;;;;;;159.25;85.03;;;10.60;99.90;;;;;;4972701;28;20031;-72
2021/12/31 11:23:31;;;;;;;206.00;109.63;;;10.70;99.90;;;;;;4972467;28;20034;-72
2021/12/31 11:26:05;;;;;;;284.50;142.82;;;10.80;99.90;;;;;;4972075;28;20429;-72
2021/12/31 11:28:36;;;;;;;364.10;184.70;;;10.80;99.90;;;;;;4972382;28;20096;-72
2021/12/31 11:31:19;;;;;;;364.33;184.40;;;10.80;99.90;;;;;;4972051;28;20019;-72
2021/12/31 11:34:08;;;;;;;219.70;105.03;;;10.80;99.90;;;;;;4971901;28;20027;-72
2021/12/31 11:36:42;;;;;;;245.15;117.22;;;10.80;99.90;;;;;;4977762;28;20035;-72
2021/12/31 11:39:38;;;;;;;195.50;96.13;;;10.80;99.90;;;;;;4971958;28;20079;-72
2021/12/31 11:42:06;;;;;;;166.27;87.15;;;10.90;99.90;;;;;;4937104;28;1233351;-72
2021/12/31 11:44:34;;;;;;;134.60;73.13;;;10.90;99.90;;;;;;4972704;28;20031;-72
2021/12/31 11:47:15;;;;;;;193.57;104.55;;;10.90;99.90;;;;;;4973088;28;20035;-72
2021/12/31 11:49:41;;;;;;;133.27;73.50;;;11.00;99.90;;;;;;4972770;28;20031;-72
2021/12/31 11:52:13;;;;;;;88.78;51.03;;;11.00;99.90;;;;;;4972869;28;20118;-72
2021/12/31 11:54:40;;;;;;;100.90;57.53;;;11.00;99.90;;;;;;4972629;28;20026;-72
2021/12/31 11:57:09;;;;;;;82.20;48.63;;;11.00;99.90;;;;;;4972457;28;20035;-71
2021/12/31 11:59:51;;;;;;;85.30;48.42;;;11.10;99.90;;;;;;4972741;28;20027;-71
2021/12/31 12:02:22;;;;;;;86.88;46.90;;;11.10;99.90;;;;;;4972298;28;20030;-72
2021/12/31 12:05:11;;;;;;;97.72;51.92;;;11.10;99.90;;;;;;4972713;28;20023;-72
2021/12/31 12:07:41;;;;;;;70.18;37.95;;;11.20;99.90;;;;;;4972459;28;20164;-72
2021/12/31 12:10:10;;;;;;;66.75;38.17;;;11.10;99.90;;;;;;4972856;28;20473;-72
2021/12/31 12:12:38;;;;;;;66.32;35.70;;;11.20;99.90;;;;;;4972517;28;20067;-72
2021/12/31 12:15:25;;;;;;;130.77;66.38;;;11.20;99.90;;;;;;4972452;28;20022;-72
2021/12/31 12:17:51;;;;;;;102.03;53.53;;;11.20;99.90;;;;;;4977599;28;20030;-72
2021/12/31 12:20:19;;;;;;;98.57;49.42;;;11.30;99.90;;;;;;4971608;28;20031;-72
2021/12/31 12:22:56;;;;;;;248.63;102.18;;;11.20;99.90;;;;;;4971461;28;20112;-72
2021/12/31 12:25:28;;;;;;;287.17;127.05;;;11.30;99.90;;;;;;4971860;28;20124;-72